sensor_id;sensor_type;location;lat;lon;timestamp;P1;durP1;ratioP1;P2;durP2;ratioP2
9424;SDS011;17139;52.140;11.636;2023-05-20T00:00:36;2.13;;;2.03;;
9424;SDS011;17139;52.140;11.636;2023-05-20T00:03:03;3.63;;;2.70;;
9424;SDS011;17139;52.140;11.636;2023-05-20T00:05:30;2.00;;;1.90;;
9424;SDS011;17139;52.140;11.636;2023-05-20T00:07:57;4.40;;;2.00;;
9424;SDS011;17139;52.140;11.636;2023-05-20T00:10:26;1.80;;;1.80;;
9424;SDS011;17139;52.140;11.636;2023-05-20T00:12:53;2.40;;;2.20;;
9424;SDS011;17139;52.140;11.636;2023-05-20T00:15:21;2.33;;;2.23;;
9424;SDS011;17139;52.140;11.636;2023-05-20T00:17:48;2.20;;;2.10;;
9424;SDS011;17139;52.140;11.636;2023-05-20T00:20:15;3.63;;;1.90;;
9424;SDS011;17139;52.140;11.636;2023-05-20T00:22:42;1.97;;;1.93;;
9424;SDS011;17139;52.140;11.636;2023-05-20T00:25:09;2.30;;;2.20;;
9424;SDS011;17139;52.140;11.636;2023-05-20T00:27:38;2.30;;;2.20;;
9424;SDS011;17139;52.140;11.636;2023-05-20T00:30:06;2.23;;;2.03;;
9424;SDS011;17139;52.140;11.636;2023-05-20T00:32:35;1.90;;;1.80;;
9424;SDS011;17139;52.140;11.636;2023-05-20T00:35:02;2.63;;;2.53;;
9424;SDS011;17139;52.140;11.636;2023-05-20T00:37:30;2.55;;;2.35;;
9424;SDS011;17139;52.140;11.636;2023-05-20T00:39:57;2.60;;;2.50;;
9424;SDS011;17139;52.140;11.636;2023-05-20T00:42:25;3.13;;;2.30;;
9424;SDS011;17139;52.140;11.636;2023-05-20T00:44:53;2.40;;;2.30;;
9424;SDS011;17139;52.140;11.636;2023-05-20T00:47:22;1.80;;;1.80;;
9424;SDS011;17139;52.140;11.636;2023-05-20T00:49:53;2.20;;;2.03;;
9424;SDS011;17139;52.140;11.636;2023-05-20T00:52:20;2.00;;;1.97;;
9424;SDS011;17139;52.140;11.636;2023-05-20T00:54:48;2.37;;;2.27;;
9424;SDS011;17139;52.140;11.636;2023-05-20T00:57:15;2.92;;;2.63;;
9424;SDS011;17139;52.140;11.636;2023-05-20T00:59:44;2.83;;;2.63;;
9424;SDS011;17139;52.140;11.636;2023-05-20T01:02:11;1.97;;;1.87;;
9424;SDS011;17139;52.140;11.636;2023-05-20T01:04:39;3.50;;;2.50;;
9424;SDS011;17139;52.140;11.636;2023-05-20T01:07:12;2.40;;;2.30;;
9424;SDS011;17139;52.140;11.636;2023-05-20T01:09:40;3.07;;;2.67;;
9424;SDS011;17139;52.140;11.636;2023-05-20T01:12:09;2.30;;;2.10;;
9424;SDS011;17139;52.140;11.636;2023-05-20T01:14:40;2.45;;;2.15;;
9424;SDS011;17139;52.140;11.636;2023-05-20T01:17:12;5.10;;;2.20;;
9424;SDS011;17139;52.140;11.636;2023-05-20T01:19:42;3.13;;;2.50;;
9424;SDS011;17139;52.140;11.636;2023-05-20T01:22:12;2.83;;;2.73;;
9424;SDS011;17139;52.140;11.636;2023-05-20T01:24:42;2.53;;;2.40;;
9424;SDS011;17139;52.140;11.636;2023-05-20T01:27:12;3.10;;;2.30;;
9424;SDS011;17139;52.140;11.636;2023-05-20T01:29:40;2.80;;;2.60;;
9424;SDS011;17139;52.140;11.636;2023-05-20T01:32:10;2.30;;;2.20;;
9424;SDS011;17139;52.140;11.636;2023-05-20T01:34:40;5.33;;;2.40;;
9424;SDS011;17139;52.140;11.636;2023-05-20T01:37:09;2.40;;;2.20;;
9424;SDS011;17139;52.140;11.636;2023-05-20T01:39:38;2.37;;;2.27;;
9424;SDS011;17139;52.140;11.636;2023-05-20T01:42:08;2.07;;;1.97;;
9424;SDS011;17139;52.140;11.636;2023-05-20T01:44:36;2.43;;;1.90;;
9424;SDS011;17139;52.140;11.636;2023-05-20T01:47:03;2.53;;;2.30;;
9424;SDS011;17139;52.140;11.636;2023-05-20T01:49:30;3.40;;;3.20;;
9424;SDS011;17139;52.140;11.636;2023-05-20T01:51:57;2.58;;;2.38;;
9424;SDS011;17139;52.140;11.636;2023-05-20T01:54:25;2.93;;;2.70;;
9424;SDS011;17139;52.140;11.636;2023-05-20T01:56:52;4.67;;;2.57;;
9424;SDS011;17139;52.140;11.636;2023-05-20T01:59:20;2.27;;;2.07;;
9424;SDS011;17139;52.140;11.636;2023-05-20T02:01:47;2.50;;;2.30;;
9424;SDS011;17139;52.140;11.636;2023-05-20T02:04:14;2.63;;;2.23;;
9424;SDS011;17139;52.140;11.636;2023-05-20T02:06:43;3.90;;;2.43;;
9424;SDS011;17139;52.140;11.636;2023-05-20T02:09:10;2.50;;;2.40;;
9424;SDS011;17139;52.140;11.636;2023-05-20T02:11:37;4.00;;;2.90;;
9424;SDS011;17139;52.140;11.636;2023-05-20T02:14:04;3.17;;;2.97;;
9424;SDS011;17139;52.140;11.636;2023-05-20T02:16:32;2.50;;;2.40;;
9424;SDS011;17139;52.140;11.636;2023-05-20T02:18:59;5.70;;;2.60;;
9424;SDS011;17139;52.140;11.636;2023-05-20T02:21:26;2.70;;;2.50;;
9424;SDS011;17139;52.140;11.636;2023-05-20T02:23:53;2.50;;;2.40;;
9424;SDS011;17139;52.140;11.636;2023-05-20T02:26:23;2.40;;;2.30;;
9424;SDS011;17139;52.140;11.636;2023-05-20T02:28:50;2.60;;;2.50;;
9424;SDS011;17139;52.140;11.636;2023-05-20T02:31:17;2.87;;;2.67;;
9424;SDS011;17139;52.140;11.636;2023-05-20T02:33:45;3.30;;;3.10;;
9424;SDS011;17139;52.140;11.636;2023-05-20T02:36:12;2.60;;;2.40;;
9424;SDS011;17139;52.140;11.636;2023-05-20T02:38:41;2.73;;;2.63;;
9424;SDS011;17139;52.140;11.636;2023-05-20T02:41:08;3.10;;;2.57;;
9424;SDS011;17139;52.140;11.636;2023-05-20T02:43:35;3.23;;;2.73;;
9424;SDS011;17139;52.140;11.636;2023-05-20T02:46:02;2.77;;;2.57;;
9424;SDS011;17139;52.140;11.636;2023-05-20T02:48:29;2.43;;;2.33;;
9424;SDS011;17139;52.140;11.636;2023-05-20T02:50:58;3.60;;;2.47;;
9424;SDS011;17139;52.140;11.636;2023-05-20T02:53:25;3.22;;;3.03;;
9424;SDS011;17139;52.140;11.636;2023-05-20T02:55:52;3.42;;;3.22;;
9424;SDS011;17139;52.140;11.636;2023-05-20T02:58:19;2.87;;;2.77;;
9424;SDS011;17139;52.140;11.636;2023-05-20T03:00:51;3.47;;;2.70;;
9424;SDS011;17139;52.140;11.636;2023-05-20T03:03:18;2.40;;;2.30;;
9424;SDS011;17139;52.140;11.636;2023-05-20T03:05:45;3.23;;;2.27;;
9424;SDS011;17139;52.140;11.636;2023-05-20T03:08:14;2.47;;;2.30;;
9424;SDS011;17139;52.140;11.636;2023-05-20T03:10:41;3.77;;;2.43;;
9424;SDS011;17139;52.140;11.636;2023-05-20T03:13:08;2.60;;;2.50;;
9424;SDS011;17139;52.140;11.636;2023-05-20T03:15:35;3.13;;;3.03;;
9424;SDS011;17139;52.140;11.636;2023-05-20T03:18:02;3.87;;;3.57;;
9424;SDS011;17139;52.140;11.636;2023-05-20T03:20:30;3.10;;;2.87;;
9424;SDS011;17139;52.140;11.636;2023-05-20T03:22:57;3.60;;;3.40;;
9424;SDS011;17139;52.140;11.636;2023-05-20T03:25:26;2.80;;;2.70;;
9424;SDS011;17139;52.140;11.636;2023-05-20T03:27:54;3.17;;;2.70;;
9424;SDS011;17139;52.140;11.636;2023-05-20T03:30:22;2.30;;;2.20;;
9424;SDS011;17139;52.140;11.636;2023-05-20T03:32:49;2.97;;;2.87;;
9424;SDS011;17139;52.140;11.636;2023-05-20T03:35:16;6.47;;;3.40;;
9424;SDS011;17139;52.140;11.636;2023-05-20T03:37:43;2.77;;;2.67;;
9424;SDS011;17139;52.140;11.636;2023-05-20T03:40:10;5.97;;;2.83;;
9424;SDS011;17139;52.140;11.636;2023-05-20T03:42:39;3.93;;;2.53;;
9424;SDS011;17139;52.140;11.636;2023-05-20T03:45:06;3.92;;;3.63;;
9424;SDS011;17139;52.140;11.636;2023-05-20T03:47:34;4.28;;;3.97;;
9424;SDS011;17139;52.140;11.636;2023-05-20T03:50:01;4.53;;;3.03;;
9424;SDS011;17139;52.140;11.636;2023-05-20T03:52:28;4.33;;;3.93;;
9424;SDS011;17139;52.140;11.636;2023-05-20T03:54:55;2.47;;;2.37;;
9424;SDS011;17139;52.140;11.636;2023-05-20T03:57:22;3.30;;;3.10;;
9424;SDS011;17139;52.140;11.636;2023-05-20T03:59:51;4.27;;;3.27;;
9424;SDS011;17139;52.140;11.636;2023-05-20T04:02:18;2.00;;;1.90;;
9424;SDS011;17139;52.140;11.636;2023-05-20T04:04:46;3.17;;;2.87;;
9424;SDS011;17139;52.140;11.636;2023-05-20T04:07:17;4.13;;;3.92;;
9424;SDS011;17139;52.140;11.636;2023-05-20T04:09:44;4.20;;;3.90;;
9424;SDS011;17139;52.140;11.636;2023-05-20T04:12:11;3.50;;;3.30;;
9424;SDS011;17139;52.140;11.636;2023-05-20T04:14:38;7.53;;;2.83;;
9424;SDS011;17139;52.140;11.636;2023-05-20T04:17:07;2.50;;;2.40;;
9424;SDS011;17139;52.140;11.636;2023-05-20T04:19:34;3.50;;;3.30;;
9424;SDS011;17139;52.140;11.636;2023-05-20T04:22:02;2.33;;;2.23;;
9424;SDS011;17139;52.140;11.636;2023-05-20T04:24:29;2.17;;;2.07;;
9424;SDS011;17139;52.140;11.636;2023-05-20T04:26:56;2.87;;;2.67;;
9424;SDS011;17139;52.140;11.636;2023-05-20T04:29:23;4.60;;;4.30;;
9424;SDS011;17139;52.140;11.636;2023-05-20T04:31:50;4.15;;;3.85;;
9424;SDS011;17139;52.140;11.636;2023-05-20T04:34:19;4.03;;;3.50;;
9424;SDS011;17139;52.140;11.636;2023-05-20T04:36:50;6.13;;;3.50;;
9424;SDS011;17139;52.140;11.636;2023-05-20T04:39:17;3.37;;;2.90;;
9424;SDS011;17139;52.140;11.636;2023-05-20T04:41:45;3.50;;;3.37;;
9424;SDS011;17139;52.140;11.636;2023-05-20T04:44:13;3.33;;;3.03;;
9424;SDS011;17139;52.140;11.636;2023-05-20T04:46:40;4.07;;;3.87;;
9424;SDS011;17139;52.140;11.636;2023-05-20T04:49:08;4.40;;;4.03;;
9424;SDS011;17139;52.140;11.636;2023-05-20T04:51:37;3.63;;;3.40;;
9424;SDS011;17139;52.140;11.636;2023-05-20T04:54:04;1.50;;;1.50;;
9424;SDS011;17139;52.140;11.636;2023-05-20T04:56:31;2.23;;;2.13;;
9424;SDS011;17139;52.140;11.636;2023-05-20T04:58:58;3.60;;;3.40;;
9424;SDS011;17139;52.140;11.636;2023-05-20T05:01:26;2.67;;;2.57;;
9424;SDS011;17139;52.140;11.636;2023-05-20T05:03:53;4.90;;;3.10;;
9424;SDS011;17139;52.140;11.636;2023-05-20T05:06:20;3.10;;;2.90;;
9424;SDS011;17139;52.140;11.636;2023-05-20T05:08:48;3.33;;;2.97;;
9424;SDS011;17139;52.140;11.636;2023-05-20T05:11:15;4.80;;;4.43;;
9424;SDS011;17139;52.140;11.636;2023-05-20T05:13:42;3.27;;;2.70;;
9424;SDS011;17139;52.140;11.636;2023-05-20T05:16:09;6.73;;;2.90;;
9424;SDS011;17139;52.140;11.636;2023-05-20T05:18:36;4.80;;;4.50;;
9424;SDS011;17139;52.140;11.636;2023-05-20T05:21:04;2.97;;;2.87;;
9424;SDS011;17139;52.140;11.636;2023-05-20T05:23:32;3.90;;;3.50;;
9424;SDS011;17139;52.140;11.636;2023-05-20T05:26:00;3.23;;;3.03;;
9424;SDS011;17139;52.140;11.636;2023-05-20T05:28:27;4.03;;;3.83;;
9424;SDS011;17139;52.140;11.636;2023-05-20T05:30:54;3.50;;;3.13;;
9424;SDS011;17139;52.140;11.636;2023-05-20T05:33:21;2.60;;;2.50;;
9424;SDS011;17139;52.140;11.636;2023-05-20T05:35:49;3.13;;;2.93;;
9424;SDS011;17139;52.140;11.636;2023-05-20T05:38:16;3.50;;;3.40;;
9424;SDS011;17139;52.140;11.636;2023-05-20T05:40:43;4.40;;;4.13;;
9424;SDS011;17139;52.140;11.636;2023-05-20T05:43:11;5.53;;;5.03;;
9424;SDS011;17139;52.140;11.636;2023-05-20T05:45:38;4.00;;;3.80;;
9424;SDS011;17139;52.140;11.636;2023-05-20T05:48:06;4.43;;;3.53;;
9424;SDS011;17139;52.140;11.636;2023-05-20T05:50:33;4.17;;;3.53;;
9424;SDS011;17139;52.140;11.636;2023-05-20T05:53:00;3.83;;;3.60;;
9424;SDS011;17139;52.140;11.636;2023-05-20T05:55:28;3.97;;;3.77;;
9424;SDS011;17139;52.140;11.636;2023-05-20T05:57:55;4.30;;;4.00;;
9424;SDS011;17139;52.140;11.636;2023-05-20T06:00:23;4.10;;;3.90;;
9424;SDS011;17139;52.140;11.636;2023-05-20T06:02:50;5.05;;;4.72;;
9424;SDS011;17139;52.140;11.636;2023-05-20T06:05:17;5.13;;;4.70;;
9424;SDS011;17139;52.140;11.636;2023-05-20T06:07:44;4.10;;;3.90;;
9424;SDS011;17139;52.140;11.636;2023-05-20T06:10:11;4.00;;;3.70;;
9424;SDS011;17139;52.140;11.636;2023-05-20T06:12:38;3.53;;;3.33;;
9424;SDS011;17139;52.140;11.636;2023-05-20T06:15:05;4.40;;;4.10;;
9424;SDS011;17139;52.140;11.636;2023-05-20T06:17:34;3.92;;;3.08;;
9424;SDS011;17139;52.140;11.636;2023-05-20T06:20:02;4.07;;;3.77;;
9424;SDS011;17139;52.140;11.636;2023-05-20T06:22:29;4.07;;;3.88;;
9424;SDS011;17139;52.140;11.636;2023-05-20T06:24:56;4.17;;;3.87;;
9424;SDS011;17139;52.140;11.636;2023-05-20T06:27:26;4.07;;;3.77;;
9424;SDS011;17139;52.140;11.636;2023-05-20T06:29:53;4.05;;;3.83;;
9424;SDS011;17139;52.140;11.636;2023-05-20T06:32:20;3.90;;;3.57;;
9424;SDS011;17139;52.140;11.636;2023-05-20T06:34:49;5.55;;;5.10;;
9424;SDS011;17139;52.140;11.636;2023-05-20T06:37:16;6.53;;;5.97;;
9424;SDS011;17139;52.140;11.636;2023-05-20T06:39:43;4.65;;;4.45;;
9424;SDS011;17139;52.140;11.636;2023-05-20T06:42:11;4.50;;;4.30;;
9424;SDS011;17139;52.140;11.636;2023-05-20T06:44:38;3.72;;;3.53;;
9424;SDS011;17139;52.140;11.636;2023-05-20T06:47:05;6.20;;;4.28;;
9424;SDS011;17139;52.140;11.636;2023-05-20T06:49:32;4.13;;;3.92;;
9424;SDS011;17139;52.140;11.636;2023-05-20T06:52:00;4.32;;;4.13;;
9424;SDS011;17139;52.140;11.636;2023-05-20T06:54:27;4.53;;;4.30;;
9424;SDS011;17139;52.140;11.636;2023-05-20T06:56:54;4.18;;;3.88;;
9424;SDS011;17139;52.140;11.636;2023-05-20T06:59:21;5.03;;;4.53;;
9424;SDS011;17139;52.140;11.636;2023-05-20T07:01:48;3.70;;;3.50;;
9424;SDS011;17139;52.140;11.636;2023-05-20T07:04:15;2.65;;;2.55;;
9424;SDS011;17139;52.140;11.636;2023-05-20T07:06:42;4.75;;;4.35;;
9424;SDS011;17139;52.140;11.636;2023-05-20T07:09:11;4.93;;;4.50;;
9424;SDS011;17139;52.140;11.636;2023-05-20T07:11:38;3.88;;;3.50;;
9424;SDS011;17139;52.140;11.636;2023-05-20T07:14:05;4.20;;;3.88;;
9424;SDS011;17139;52.140;11.636;2023-05-20T07:16:33;3.47;;;3.15;;
9424;SDS011;17139;52.140;11.636;2023-05-20T07:19:00;4.40;;;4.10;;
9424;SDS011;17139;52.140;11.636;2023-05-20T07:21:28;4.10;;;3.90;;
9424;SDS011;17139;52.140;11.636;2023-05-20T07:23:55;4.95;;;4.65;;
9424;SDS011;17139;52.140;11.636;2023-05-20T07:26:23;4.87;;;4.47;;
9424;SDS011;17139;52.140;11.636;2023-05-20T07:28:50;3.95;;;3.75;;
9424;SDS011;17139;52.140;11.636;2023-05-20T07:31:19;4.55;;;4.25;;
9424;SDS011;17139;52.140;11.636;2023-05-20T07:33:46;4.32;;;4.00;;
9424;SDS011;17139;52.140;11.636;2023-05-20T07:36:13;4.07;;;3.88;;
9424;SDS011;17139;52.140;11.636;2023-05-20T07:38:40;3.50;;;3.30;;
9424;SDS011;17139;52.140;11.636;2023-05-20T07:41:07;3.83;;;3.63;;
9424;SDS011;17139;52.140;11.636;2023-05-20T07:43:35;4.57;;;4.00;;
9424;SDS011;17139;52.140;11.636;2023-05-20T07:46:02;4.47;;;4.10;;
9424;SDS011;17139;52.140;11.636;2023-05-20T07:48:29;5.18;;;4.82;;
9424;SDS011;17139;52.140;11.636;2023-05-20T07:50:56;5.22;;;4.80;;
9424;SDS011;17139;52.140;11.636;2023-05-20T07:53:23;4.00;;;3.80;;
9424;SDS011;17139;52.140;11.636;2023-05-20T07:55:50;4.47;;;3.85;;
9424;SDS011;17139;52.140;11.636;2023-05-20T07:58:17;4.30;;;4.00;;
9424;SDS011;17139;52.140;11.636;2023-05-20T08:00:46;4.30;;;4.05;;
9424;SDS011;17139;52.140;11.636;2023-05-20T08:03:13;3.45;;;3.25;;
9424;SDS011;17139;52.140;11.636;2023-05-20T08:05:41;4.30;;;4.05;;
9424;SDS011;17139;52.140;11.636;2023-05-20T08:08:08;4.47;;;4.07;;
9424;SDS011;17139;52.140;11.636;2023-05-20T08:10:35;4.60;;;4.30;;
9424;SDS011;17139;52.140;11.636;2023-05-20T08:13:02;5.88;;;5.47;;
9424;SDS011;17139;52.140;11.636;2023-05-20T08:15:29;4.57;;;4.28;;
9424;SDS011;17139;52.140;11.636;2023-05-20T08:17:58;7.15;;;4.80;;
9424;SDS011;17139;52.140;11.636;2023-05-20T08:20:25;4.95;;;4.65;;
9424;SDS011;17139;52.140;11.636;2023-05-20T08:22:52;5.20;;;4.88;;
9424;SDS011;17139;52.140;11.636;2023-05-20T08:25:19;4.63;;;4.43;;
9424;SDS011;17139;52.140;11.636;2023-05-20T08:27:47;4.40;;;4.20;;
9424;SDS011;17139;52.140;11.636;2023-05-20T08:30:14;5.32;;;5.03;;
9424;SDS011;17139;52.140;11.636;2023-05-20T08:32:41;6.60;;;6.00;;
9424;SDS011;17139;52.140;11.636;2023-05-20T08:35:10;6.47;;;5.87;;
9424;SDS011;17139;52.140;11.636;2023-05-20T08:37:37;5.63;;;5.20;;
9424;SDS011;17139;52.140;11.636;2023-05-20T08:40:04;4.80;;;4.40;;
9424;SDS011;17139;52.140;11.636;2023-05-20T08:42:33;4.57;;;4.28;;
9424;SDS011;17139;52.140;11.636;2023-05-20T08:45:00;7.18;;;5.00;;
9424;SDS011;17139;52.140;11.636;2023-05-20T08:47:28;5.40;;;5.13;;
9424;SDS011;17139;52.140;11.636;2023-05-20T08:49:55;5.00;;;4.57;;
9424;SDS011;17139;52.140;11.636;2023-05-20T08:52:24;6.85;;;4.70;;
9424;SDS011;17139;52.140;11.636;2023-05-20T08:54:51;6.50;;;6.00;;
9424;SDS011;17139;52.140;11.636;2023-05-20T08:57:19;5.35;;;4.93;;
9424;SDS011;17139;52.140;11.636;2023-05-20T08:59:46;6.28;;;5.72;;
9424;SDS011;17139;52.140;11.636;2023-05-20T09:02:13;4.78;;;3.50;;
9424;SDS011;17139;52.140;11.636;2023-05-20T09:04:40;5.97;;;3.97;;
9424;SDS011;17139;52.140;11.636;2023-05-20T09:07:07;4.72;;;4.53;;
9424;SDS011;17139;52.140;11.636;2023-05-20T09:09:36;4.50;;;4.22;;
9424;SDS011;17139;52.140;11.636;2023-05-20T09:12:03;3.08;;;2.95;;
9424;SDS011;17139;52.140;11.636;2023-05-20T09:14:30;4.95;;;4.50;;
9424;SDS011;17139;52.140;11.636;2023-05-20T09:16:57;5.80;;;5.28;;
9424;SDS011;17139;52.140;11.636;2023-05-20T09:19:24;4.32;;;3.05;;
9424;SDS011;17139;52.140;11.636;2023-05-20T09:21:52;5.43;;;5.03;;
9424;SDS011;17139;52.140;11.636;2023-05-20T09:24:21;10.90;;;5.10;;
9424;SDS011;17139;52.140;11.636;2023-05-20T09:26:51;3.65;;;3.45;;
9424;SDS011;17139;52.140;11.636;2023-05-20T09:29:18;4.82;;;4.53;;
9424;SDS011;17139;52.140;11.636;2023-05-20T09:31:45;6.22;;;4.85;;
9424;SDS011;17139;52.140;11.636;2023-05-20T09:34:13;5.43;;;5.03;;
9424;SDS011;17139;52.140;11.636;2023-05-20T09:36:40;7.80;;;4.43;;
9424;SDS011;17139;52.140;11.636;2023-05-20T09:39:11;4.25;;;3.78;;
9424;SDS011;17139;52.140;11.636;2023-05-20T09:41:48;8.65;;;4.78;;
9424;SDS011;17139;52.140;11.636;2023-05-20T09:44:20;6.47;;;5.95;;
9424;SDS011;17139;52.140;11.636;2023-05-20T09:46:48;5.25;;;4.80;;
9424;SDS011;17139;52.140;11.636;2023-05-20T09:49:16;5.55;;;4.70;;
9424;SDS011;17139;52.140;11.636;2023-05-20T09:51:45;3.83;;;3.42;;
9424;SDS011;17139;52.140;11.636;2023-05-20T09:54:15;5.95;;;5.47;;
9424;SDS011;17139;52.140;11.636;2023-05-20T09:56:45;7.13;;;5.15;;
9424;SDS011;17139;52.140;11.636;2023-05-20T09:59:14;5.20;;;4.85;;
9424;SDS011;17139;52.140;11.636;2023-05-20T10:01:42;4.85;;;4.40;;
9424;SDS011;17139;52.140;11.636;2023-05-20T10:04:10;6.38;;;5.90;;
9424;SDS011;17139;52.140;11.636;2023-05-20T10:06:45;5.72;;;5.32;;
9424;SDS011;17139;52.140;11.636;2023-05-20T10:09:36;5.72;;;5.20;;
9424;SDS011;17139;52.140;11.636;2023-05-20T10:12:18;7.22;;;5.80;;
9424;SDS011;17139;52.140;11.636;2023-05-20T10:14:56;6.30;;;5.10;;
9424;SDS011;17139;52.140;11.636;2023-05-20T10:17:31;3.38;;;3.20;;
9424;SDS011;17139;52.140;11.636;2023-05-20T10:20:05;5.05;;;4.78;;
9424;SDS011;17139;52.140;11.636;2023-05-20T10:22:35;5.28;;;4.88;;
9424;SDS011;17139;52.140;11.636;2023-05-20T10:25:03;5.43;;;4.93;;
9424;SDS011;17139;52.140;11.636;2023-05-20T10:27:41;5.85;;;5.35;;
9424;SDS011;17139;52.140;11.636;2023-05-20T10:30:15;5.20;;;4.80;;
9424;SDS011;17139;52.140;11.636;2023-05-20T10:32:51;2.97;;;2.88;;
9424;SDS011;17139;52.140;11.636;2023-05-20T10:35:20;5.80;;;5.30;;
9424;SDS011;17139;52.140;11.636;2023-05-20T10:37:51;5.80;;;5.43;;
9424;SDS011;17139;52.140;11.636;2023-05-20T10:40:20;5.00;;;4.72;;
9424;SDS011;17139;52.140;11.636;2023-05-20T10:42:47;3.67;;;3.45;;
9424;SDS011;17139;52.140;11.636;2023-05-20T10:45:25;6.65;;;6.18;;
9424;SDS011;17139;52.140;11.636;2023-05-20T10:47:53;5.70;;;5.30;;
9424;SDS011;17139;52.140;11.636;2023-05-20T10:50:25;1.90;;;1.80;;
9424;SDS011;17139;52.140;11.636;2023-05-20T10:52:53;3.70;;;3.50;;
9424;SDS011;17139;52.140;11.636;2023-05-20T10:55:20;7.28;;;6.18;;
9424;SDS011;17139;52.140;11.636;2023-05-20T10:57:48;6.55;;;6.10;;
9424;SDS011;17139;52.140;11.636;2023-05-20T11:00:16;5.15;;;4.78;;
9424;SDS011;17139;52.140;11.636;2023-05-20T11:02:46;5.53;;;4.80;;
9424;SDS011;17139;52.140;11.636;2023-05-20T11:05:14;5.63;;;5.30;;
9424;SDS011;17139;52.140;11.636;2023-05-20T11:07:43;5.35;;;4.95;;
9424;SDS011;17139;52.140;11.636;2023-05-20T11:10:09;6.43;;;5.90;;
9424;SDS011;17139;52.140;11.636;2023-05-20T11:12:37;5.18;;;4.82;;
9424;SDS011;17139;52.140;11.636;2023-05-20T11:15:05;8.02;;;6.80;;
9424;SDS011;17139;52.140;11.636;2023-05-20T11:17:32;5.95;;;5.63;;
9424;SDS011;17139;52.140;11.636;2023-05-20T11:20:01;5.75;;;5.25;;
9424;SDS011;17139;52.140;11.636;2023-05-20T11:22:28;5.68;;;5.32;;
9424;SDS011;17139;52.140;11.636;2023-05-20T11:24:55;7.28;;;5.85;;
9424;SDS011;17139;52.140;11.636;2023-05-20T11:27:22;6.07;;;5.50;;
9424;SDS011;17139;52.140;11.636;2023-05-20T11:29:49;4.65;;;4.45;;
9424;SDS011;17139;52.140;11.636;2023-05-20T11:32:18;5.68;;;5.13;;
9424;SDS011;17139;52.140;11.636;2023-05-20T11:34:49;5.80;;;5.05;;
9424;SDS011;17139;52.140;11.636;2023-05-20T11:37:18;5.53;;;5.22;;
9424;SDS011;17139;52.140;11.636;2023-05-20T11:39:46;5.63;;;5.22;;
9424;SDS011;17139;52.140;11.636;2023-05-20T11:42:13;6.07;;;5.57;;
9424;SDS011;17139;52.140;11.636;2023-05-20T11:44:42;9.32;;;6.70;;
9424;SDS011;17139;52.140;11.636;2023-05-20T11:47:10;5.45;;;5.05;;
9424;SDS011;17139;52.140;11.636;2023-05-20T11:49:40;5.65;;;5.00;;
9424;SDS011;17139;52.140;11.636;2023-05-20T11:52:08;5.20;;;4.90;;
9424;SDS011;17139;52.140;11.636;2023-05-20T11:54:37;5.35;;;4.82;;
9424;SDS011;17139;52.140;11.636;2023-05-20T11:57:04;6.70;;;6.22;;
9424;SDS011;17139;52.140;11.636;2023-05-20T11:59:31;5.70;;;5.30;;
9424;SDS011;17139;52.140;11.636;2023-05-20T12:01:59;6.40;;;6.00;;
9424;SDS011;17139;52.140;11.636;2023-05-20T12:04:26;6.68;;;6.18;;
9424;SDS011;17139;52.140;11.636;2023-05-20T12:06:53;5.78;;;5.38;;
9424;SDS011;17139;52.140;11.636;2023-05-20T12:09:20;5.32;;;4.93;;
9424;SDS011;17139;52.140;11.636;2023-05-20T12:11:49;4.35;;;4.10;;
9424;SDS011;17139;52.140;11.636;2023-05-20T12:14:16;4.45;;;4.25;;
9424;SDS011;17139;52.140;11.636;2023-05-20T12:16:43;4.28;;;3.97;;
9424;SDS011;17139;52.140;11.636;2023-05-20T12:19:10;2.60;;;2.50;;
9424;SDS011;17139;52.140;11.636;2023-05-20T12:21:36;6.80;;;5.28;;
9424;SDS011;17139;52.140;11.636;2023-05-20T12:24:04;5.80;;;5.40;;
9424;SDS011;17139;52.140;11.636;2023-05-20T12:26:32;5.70;;;5.20;;
9424;SDS011;17139;52.140;11.636;2023-05-20T12:29:01;5.63;;;5.30;;
9424;SDS011;17139;52.140;11.636;2023-05-20T12:31:28;5.53;;;4.38;;
9424;SDS011;17139;52.140;11.636;2023-05-20T12:33:56;4.68;;;4.45;;
9424;SDS011;17139;52.140;11.636;2023-05-20T12:36:22;5.45;;;5.05;;
9424;SDS011;17139;52.140;11.636;2023-05-20T12:38:50;5.40;;;4.85;;
9424;SDS011;17139;52.140;11.636;2023-05-20T12:41:17;5.50;;;5.20;;
9424;SDS011;17139;52.140;11.636;2023-05-20T12:43:45;5.68;;;5.22;;
9424;SDS011;17139;52.140;11.636;2023-05-20T12:46:13;5.18;;;4.80;;
9424;SDS011;17139;52.140;11.636;2023-05-20T12:48:40;6.35;;;5.68;;
9424;SDS011;17139;52.140;11.636;2023-05-20T12:51:07;4.60;;;4.28;;
9424;SDS011;17139;52.140;11.636;2023-05-20T12:53:34;3.13;;;2.95;;
9424;SDS011;17139;52.140;11.636;2023-05-20T12:56:01;3.67;;;3.47;;
9424;SDS011;17139;52.140;11.636;2023-05-20T12:58:29;5.05;;;4.68;;
9424;SDS011;17139;52.140;11.636;2023-05-20T13:00:56;2.90;;;2.72;;
9424;SDS011;17139;52.140;11.636;2023-05-20T13:03:24;4.15;;;3.95;;
9424;SDS011;17139;52.140;11.636;2023-05-20T13:05:51;4.85;;;4.55;;
9424;SDS011;17139;52.140;11.636;2023-05-20T13:08:18;4.82;;;4.50;;
9424;SDS011;17139;52.140;11.636;2023-05-20T13:10:45;2.55;;;2.45;;
9424;SDS011;17139;52.140;11.636;2023-05-20T13:13:12;4.88;;;4.57;;
9424;SDS011;17139;52.140;11.636;2023-05-20T13:15:45;5.32;;;5.00;;
9424;SDS011;17139;52.140;11.636;2023-05-20T13:18:13;4.05;;;3.70;;
9424;SDS011;17139;52.140;11.636;2023-05-20T13:20:41;3.95;;;3.75;;
9424;SDS011;17139;52.140;11.636;2023-05-20T13:23:09;3.65;;;3.38;;
9424;SDS011;17139;52.140;11.636;2023-05-20T13:25:36;4.53;;;4.15;;
9424;SDS011;17139;52.140;11.636;2023-05-20T13:28:03;4.72;;;4.53;;
9424;SDS011;17139;52.140;11.636;2023-05-20T13:30:30;3.58;;;3.28;;
9424;SDS011;17139;52.140;11.636;2023-05-20T13:32:58;3.97;;;3.78;;
9424;SDS011;17139;52.140;11.636;2023-05-20T13:35:25;4.10;;;3.85;;
9424;SDS011;17139;52.140;11.636;2023-05-20T13:37:53;4.68;;;4.30;;
9424;SDS011;17139;52.140;11.636;2023-05-20T13:40:20;6.43;;;4.25;;
9424;SDS011;17139;52.140;11.636;2023-05-20T13:42:47;4.95;;;4.45;;
9424;SDS011;17139;52.140;11.636;2023-05-20T13:45:14;4.40;;;4.00;;
9424;SDS011;17139;52.140;11.636;2023-05-20T13:47:42;4.30;;;3.90;;
9424;SDS011;17139;52.140;11.636;2023-05-20T13:50:09;4.50;;;4.30;;
9424;SDS011;17139;52.140;11.636;2023-05-20T13:52:37;3.65;;;3.50;;
9424;SDS011;17139;52.140;11.636;2023-05-20T13:55:06;3.70;;;3.50;;
9424;SDS011;17139;52.140;11.636;2023-05-20T13:57:33;4.90;;;4.70;;
9424;SDS011;17139;52.140;11.636;2023-05-20T14:00:00;5.13;;;4.78;;
9424;SDS011;17139;52.140;11.636;2023-05-20T14:02:29;2.45;;;2.33;;
9424;SDS011;17139;52.140;11.636;2023-05-20T14:04:56;4.10;;;3.90;;
9424;SDS011;17139;52.140;11.636;2023-05-20T14:07:23;6.85;;;5.22;;
9424;SDS011;17139;52.140;11.636;2023-05-20T14:09:50;3.95;;;3.65;;
9424;SDS011;17139;52.140;11.636;2023-05-20T14:12:19;1.95;;;1.95;;
9424;SDS011;17139;52.140;11.636;2023-05-20T14:14:47;4.35;;;4.10;;
9424;SDS011;17139;52.140;11.636;2023-05-20T14:17:14;4.85;;;4.53;;
9424;SDS011;17139;52.140;11.636;2023-05-20T14:19:40;4.75;;;4.45;;
9424;SDS011;17139;52.140;11.636;2023-05-20T14:22:07;6.15;;;4.85;;
9424;SDS011;17139;52.140;11.636;2023-05-20T14:24:36;4.63;;;4.32;;
9424;SDS011;17139;52.140;11.636;2023-05-20T14:27:03;4.80;;;4.40;;
9424;SDS011;17139;52.140;11.636;2023-05-20T14:29:32;2.47;;;2.38;;
9424;SDS011;17139;52.140;11.636;2023-05-20T14:31:59;8.20;;;4.47;;
9424;SDS011;17139;52.140;11.636;2023-05-20T14:34:28;4.07;;;3.90;;
9424;SDS011;17139;52.140;11.636;2023-05-20T14:36:55;4.70;;;4.30;;
9424;SDS011;17139;52.140;11.636;2023-05-20T14:39:22;4.68;;;4.45;;
9424;SDS011;17139;52.140;11.636;2023-05-20T14:41:49;4.13;;;3.92;;
9424;SDS011;17139;52.140;11.636;2023-05-20T14:44:16;5.40;;;5.10;;
9424;SDS011;17139;52.140;11.636;2023-05-20T14:46:44;5.22;;;4.82;;
9424;SDS011;17139;52.140;11.636;2023-05-20T14:49:11;4.40;;;4.20;;
9424;SDS011;17139;52.140;11.636;2023-05-20T14:51:38;5.28;;;4.20;;